createdAt,value
2023-05-14T00:01:18.724Z,100768.31
2023-05-14T00:03:45.228Z,100771.03
2023-05-14T00:06:11.717Z,100769.38
2023-05-14T00:08:39.412Z,100763.03
2023-05-14T00:11:05.869Z,100766.72
2023-05-14T00:13:32.274Z,100749.50
2023-05-14T00:15:58.682Z,100751.28
2023-05-14T00:18:25.205Z,100753.19
2023-05-14T00:20:51.775Z,100744.25
2023-05-14T00:23:18.183Z,100747.81
2023-05-14T00:25:45.853Z,100741.47
2023-05-14T00:28:12.319Z,100743.41
2023-05-14T00:30:39.002Z,100731.63
2023-05-14T00:33:05.825Z,100745.22
2023-05-14T00:35:32.436Z,100735.41
2023-05-14T00:37:58.848Z,100728.19
2023-05-14T00:40:26.614Z,100736.31
2023-05-14T00:42:55.094Z,100734.44
2023-05-14T00:45:22.021Z,100740.88
2023-05-14T00:47:48.756Z,100722.13
2023-05-14T00:50:16.341Z,100736.41
2023-05-14T00:52:42.855Z,100737.31
2023-05-14T00:55:10.613Z,100740.97
2023-05-14T00:57:37.533Z,100733.88
2023-05-14T01:00:06.936Z,100736.59
2023-05-14T01:02:33.619Z,100736.66
2023-05-14T01:05:00.490Z,100734.97
2023-05-14T01:07:39.232Z,100730.78
2023-05-14T01:10:11.628Z,100735.28
2023-05-14T01:12:47.270Z,100735.34
2023-05-14T01:15:20.841Z,100725.53
2023-05-14T01:17:53.653Z,100735.41
2023-05-14T01:20:20.517Z,100730.84
2023-05-14T01:22:49.024Z,100738.22
2023-05-14T01:25:15.472Z,100732.84
2023-05-14T01:27:49.211Z,100735.59
2023-05-14T01:30:21.833Z,100729.44
2023-05-14T01:32:53.624Z,100732.09
2023-05-14T01:35:22.284Z,100734.91
2023-05-14T01:37:51.051Z,100728.72
2023-05-14T01:40:17.782Z,100729.69
2023-05-14T01:42:45.305Z,100719.81
2023-05-14T01:45:11.970Z,100721.59
2023-05-14T01:47:38.429Z,100717.16
2023-05-14T01:50:05.883Z,100709.94
2023-05-14T01:52:32.304Z,100709.09
2023-05-14T01:55:00.286Z,100706.38
2023-05-14T01:57:26.758Z,100709.25
2023-05-14T01:59:53.282Z,100710.19
2023-05-14T02:02:20.089Z,100710.13
2023-05-14T02:04:46.564Z,100715.66
2023-05-14T02:07:13.003Z,100711.13
2023-05-14T02:09:39.419Z,100712.19
2023-05-14T02:12:08.511Z,100708.41
2023-05-14T02:14:35.085Z,100711.13
2023-05-14T02:17:01.523Z,100695.94
2023-05-14T02:19:27.932Z,100708.31
2023-05-14T02:21:54.347Z,100701.22
2023-05-14T02:24:20.976Z,100703.94
2023-05-14T02:26:47.541Z,100701.22
2023-05-14T02:29:15.300Z,100702.03
2023-05-14T02:31:41.748Z,100701.22
2023-05-14T02:34:08.479Z,100695.78
2023-05-14T02:36:34.913Z,100714.75
2023-05-14T02:39:01.332Z,100711.13
2023-05-14T02:41:27.760Z,100712.09
2023-05-14T02:43:54.434Z,100694.16
2023-05-14T02:46:22.493Z,100697.72
2023-05-14T02:48:48.916Z,100687.84
2023-05-14T02:51:15.338Z,100684.31
2023-05-14T02:53:41.878Z,100690.69
2023-05-14T02:56:08.312Z,100685.25
2023-05-14T02:58:34.776Z,100688.94
2023-05-14T03:01:01.389Z,100687.28
2023-05-14T03:03:30.590Z,100681.84
2023-05-14T03:05:57.558Z,100687.19
2023-05-14T03:08:24.146Z,100692.72
2023-05-14T03:10:50.596Z,100687.38
2023-05-14T03:13:17.022Z,100675.81
2023-05-14T03:15:43.476Z,100677.75
2023-05-14T03:18:10.133Z,100687.59
2023-05-14T03:20:37.972Z,100685.03
2023-05-14T03:23:05.548Z,100686.91
2023-05-14T03:25:32.016Z,100688.75
2023-05-14T03:27:58.399Z,100680.59
2023-05-14T03:30:25.080Z,100686.91
2023-05-14T03:32:52.130Z,100681.59
2023-05-14T03:35:18.854Z,100671.66
2023-05-14T03:37:46.661Z,100677.09
2023-05-14T03:40:13.078Z,100672.72
2023-05-14T03:42:39.433Z,100674.47
2023-05-14T03:45:07.344Z,100672.72
2023-05-14T03:47:34.111Z,100677.25
2023-05-14T03:50:01.124Z,100675.44
2023-05-14T03:52:27.630Z,100666.59
2023-05-14T03:54:55.337Z,100668.28
2023-05-14T03:57:21.798Z,100666.41
2023-05-14T03:59:48.249Z,100664.56
2023-05-14T04:02:14.890Z,100665.41
2023-05-14T04:04:41.540Z,100655.50
2023-05-14T04:07:07.987Z,100665.34
2023-05-14T04:09:34.662Z,100658.00
2023-05-14T04:12:02.371Z,100660.66
2023-05-14T04:14:29.686Z,100669.66
2023-05-14T04:16:56.118Z,100665.84
2023-05-14T04:19:22.553Z,100660.41
2023-05-14T04:21:49.205Z,100662.06
2023-05-14T04:24:17.070Z,100661.00
2023-05-14T04:26:43.463Z,100657.22
2023-05-14T04:29:11.267Z,100663.56
2023-05-14T04:31:37.726Z,100657.13
2023-05-14T04:34:04.170Z,100661.50
2023-05-14T04:36:31.584Z,100661.34
2023-05-14T04:38:58.029Z,100659.38
2023-05-14T04:41:24.441Z,100657.41
2023-05-14T04:43:50.856Z,100653.63
2023-05-14T04:46:18.660Z,100661.59
2023-05-14T04:48:45.038Z,100659.59
2023-05-14T04:51:11.492Z,100661.19
2023-05-14T04:53:37.881Z,100660.09
2023-05-14T04:56:04.371Z,100661.59
2023-05-14T04:58:32.137Z,100656.91
2023-05-14T05:01:00.197Z,100655.66
2023-05-14T05:03:28.158Z,100651.84
2023-05-14T05:05:54.652Z,100662.25
2023-05-14T05:08:21.024Z,100659.00
2023-05-14T05:10:47.415Z,100649.41
2023-05-14T05:13:13.872Z,100649.72
2023-05-14T05:15:40.286Z,100650.19
2023-05-14T05:18:06.937Z,100652.44
2023-05-14T05:20:34.776Z,100655.69
2023-05-14T05:23:01.230Z,100657.41
2023-05-14T05:25:27.736Z,100655.81
2023-05-14T05:27:54.136Z,100647.75
2023-05-14T05:30:20.540Z,100649.75
2023-05-14T05:32:47.006Z,100636.09
2023-05-14T05:35:13.484Z,100635.22
2023-05-14T05:37:41.246Z,100621.19
2023-05-14T05:40:08.867Z,100619.13
2023-05-14T05:42:35.336Z,100625.13
2023-05-14T05:45:01.802Z,100620.00
2023-05-14T05:47:28.240Z,100623.41
2023-05-14T05:49:54.682Z,100624.06
2023-05-14T05:52:21.218Z,100621.03
2023-05-14T05:54:48.981Z,100630.56
2023-05-14T05:57:15.339Z,100624.53
2023-05-14T05:59:41.738Z,100623.16
2023-05-14T06:02:08.205Z,100619.25
2023-05-14T06:04:34.739Z,100623.25
2023-05-14T06:07:01.461Z,100622.41
2023-05-14T06:09:27.884Z,100619.75
2023-05-14T06:11:55.592Z,100622.00
2023-05-14T06:14:22.024Z,100629.63
2023-05-14T06:16:48.496Z,100616.94
2023-05-14T06:19:14.946Z,100625.56
2023-05-14T06:21:41.428Z,100623.59
2023-05-14T06:24:08.220Z,100630.31
2023-05-14T06:26:34.747Z,100623.09
2023-05-14T06:29:02.721Z,100622.28
2023-05-14T06:31:29.204Z,100626.91
2023-05-14T06:33:55.660Z,100625.13
2023-05-14T06:36:22.175Z,100614.03
2023-05-14T06:38:48.691Z,100621.50
2023-05-14T06:41:15.092Z,100623.72
2023-05-14T06:43:41.501Z,100622.00
2023-05-14T06:46:09.215Z,100617.44
2023-05-14T06:48:35.713Z,100611.94
2023-05-14T06:51:02.111Z,100611.50
2023-05-14T06:53:28.613Z,100605.75
2023-05-14T06:55:55.020Z,100610.16
2023-05-14T06:58:21.477Z,100610.16
2023-05-14T07:00:48.162Z,100609.53
2023-05-14T07:03:16.158Z,100606.41
2023-05-14T07:05:42.605Z,100591.00
2023-05-14T07:08:08.963Z,100602.47
2023-05-14T07:10:35.465Z,100601.91
2023-05-14T07:13:01.886Z,100603.97
2023-05-14T07:15:28.302Z,100596.94
2023-05-14T07:17:54.763Z,100601.50
2023-05-14T07:20:23.151Z,100589.28
2023-05-14T07:22:49.858Z,100589.88
2023-05-14T07:25:16.484Z,100582.63
2023-05-14T07:27:42.932Z,100584.50
2023-05-14T07:30:09.810Z,100585.28
2023-05-14T07:32:36.267Z,100572.06
2023-05-14T07:35:02.730Z,100571.94
2023-05-14T07:37:30.545Z,100568.97
2023-05-14T07:39:56.993Z,100572.44
2023-05-14T07:42:35.329Z,100559.88
2023-05-14T07:45:03.202Z,100573.94
2023-05-14T07:47:29.786Z,100564.22
2023-05-14T07:49:57.212Z,100569.09
2023-05-14T07:52:24.170Z,100568.81
2023-05-14T07:54:52.166Z,100556.63
2023-05-14T07:57:19.010Z,100557.59
2023-05-14T07:59:45.552Z,100556.38
2023-05-14T08:02:12.051Z,100562.53
2023-05-14T08:04:38.697Z,100556.16
2023-05-14T08:07:07.063Z,100553.63
2023-05-14T08:09:33.504Z,100553.50
2023-05-14T08:12:01.286Z,100548.63
2023-05-14T08:14:27.783Z,100552.88
2023-05-14T08:16:54.559Z,100544.69
2023-05-14T08:19:21.324Z,100548.63
2023-05-14T08:21:48.260Z,100543.19
2023-05-14T08:24:20.859Z,100533.69
2023-05-14T08:26:47.240Z,100533.28
2023-05-14T08:29:16.488Z,100525.53
2023-05-14T08:31:43.507Z,100534.28
2023-05-14T08:34:10.055Z,100536.81
2023-05-14T08:36:36.452Z,100535.31
2023-05-14T08:39:03.006Z,100532.81
2023-05-14T08:41:29.864Z,100530.56
2023-05-14T08:44:06.213Z,100531.16
2023-05-14T08:46:36.128Z,100526.41
2023-05-14T08:49:13.371Z,100524.19
2023-05-14T08:51:40.174Z,100510.72
2023-05-14T08:54:06.569Z,100507.91
2023-05-14T08:56:33.489Z,100506.75
2023-05-14T08:58:59.897Z,100503.03
2023-05-14T09:01:26.933Z,100507.47
2023-05-14T09:03:54.838Z,100505.97
2023-05-14T09:06:21.840Z,100503.13
2023-05-14T09:08:48.407Z,100496.13
2023-05-14T09:11:14.789Z,100501.72
2023-05-14T09:13:41.262Z,100487.41
2023-05-14T09:16:07.767Z,100500.69
2023-05-14T09:18:36.016Z,100483.84
2023-05-14T09:21:04.481Z,100491.94
2023-05-14T09:23:32.645Z,100499.94
2023-05-14T09:25:59.055Z,100486.56
2023-05-14T09:28:25.702Z,100487.81
2023-05-14T09:30:52.239Z,100493.28
2023-05-14T09:33:26.251Z,100489.03
2023-05-14T09:35:57.633Z,100493.09
2023-05-14T09:38:29.078Z,100491.03
2023-05-14T09:40:55.532Z,100488.09
2023-05-14T09:43:21.915Z,100490.78
2023-05-14T09:45:48.468Z,100482.59
2023-05-14T09:48:14.969Z,100485.69
2023-05-14T09:50:42.327Z,100478.13
2023-05-14T09:53:09.364Z,100459.16
2023-05-14T09:55:37.904Z,100471.97
2023-05-14T09:58:04.806Z,100466.72
2023-05-14T10:00:31.969Z,100460.91
2023-05-14T10:02:59.191Z,100467.34
2023-05-14T10:05:25.801Z,100464.97
2023-05-14T10:07:57.013Z,100457.75
2023-05-14T10:10:28.989Z,100458.81
2023-05-14T10:13:02.506Z,100458.63
2023-05-14T10:15:36.620Z,100453.84
2023-05-14T10:18:07.713Z,100454.53
2023-05-14T10:20:34.830Z,100455.22
2023-05-14T10:23:18.102Z,100440.22
2023-05-14T10:25:45.435Z,100435.19
2023-05-14T10:28:13.293Z,100440.03
2023-05-14T10:30:44.285Z,100426.81
2023-05-14T10:33:12.513Z,100434.31
2023-05-14T10:35:54.840Z,100428.34
2023-05-14T10:38:23.287Z,100430.44
2023-05-14T10:40:51.537Z,100431.66
2023-05-14T10:43:23.381Z,100426.16
2023-05-14T10:45:49.741Z,100426.16
2023-05-14T10:48:16.327Z,100427.00
2023-05-14T10:50:43.447Z,100418.88
2023-05-14T10:53:13.034Z,100410.75
2023-05-14T10:55:39.472Z,100413.94
2023-05-14T10:58:06.010Z,100412.41
2023-05-14T11:00:35.369Z,100405.16
2023-05-14T11:03:05.040Z,100407.84
2023-05-14T11:05:32.232Z,100404.78
2023-05-14T11:07:59.704Z,100399.75
2023-05-14T11:10:27.342Z,100406.41
2023-05-14T11:12:53.763Z,100397.84
2023-05-14T11:15:21.998Z,100396.53
2023-05-14T11:17:53.293Z,100403.47
2023-05-14T11:20:20.712Z,100396.44
2023-05-14T11:22:48.224Z,100395.03
2023-05-14T11:25:15.343Z,100399.09
2023-05-14T11:27:43.636Z,100396.69
2023-05-14T11:30:13.562Z,100395.81
2023-05-14T11:32:40.124Z,100394.81
2023-05-14T11:35:08.638Z,100390.31
2023-05-14T11:37:35.150Z,100393.06
2023-05-14T11:40:01.975Z,100394.69
2023-05-14T11:42:28.423Z,100388.75
2023-05-14T11:44:54.874Z,100385.25
2023-05-14T11:47:22.129Z,100385.59
2023-05-14T11:49:51.190Z,100386.13
2023-05-14T11:52:31.072Z,100383.16
2023-05-14T11:57:51.660Z,100381.47
2023-05-14T12:00:19.195Z,100381.94
2023-05-14T12:02:47.984Z,100385.44
2023-05-14T12:05:14.462Z,100380.84
2023-05-14T12:07:44.462Z,100384.25
2023-05-14T12:10:12.078Z,100377.34
2023-05-14T12:12:38.516Z,100375.56
2023-05-14T12:15:11.342Z,100363.59
2023-05-14T12:17:37.924Z,100372.69
2023-05-14T12:20:07.955Z,100366.09
2023-05-14T12:22:36.866Z,100363.69
2023-05-14T12:25:11.438Z,100368.75
2023-05-14T12:27:37.856Z,100361.03
2023-05-14T12:32:37.733Z,100351.78
2023-05-14T12:35:05.047Z,100353.31
2023-05-14T12:37:31.706Z,100360.34
2023-05-14T12:39:58.110Z,100362.97
2023-05-14T12:42:25.876Z,100355.66
2023-05-14T12:44:52.267Z,100358.41
2023-05-14T12:47:19.094Z,100348.25
2023-05-14T12:49:45.608Z,100343.81
2023-05-14T12:54:42.934Z,100347.34
2023-05-14T12:57:09.639Z,100340.00
2023-05-14T12:59:37.478Z,100340.69
2023-05-14T13:02:03.911Z,100332.22
2023-05-14T13:04:30.415Z,100335.88
2023-05-14T13:06:56.935Z,100329.06
2023-05-14T13:09:23.379Z,100333.09
2023-05-14T13:11:49.738Z,100337.38
2023-05-14T13:14:17.046Z,100337.88
2023-05-14T13:16:46.012Z,100330.56
2023-05-14T13:19:12.550Z,100339.69
2023-05-14T13:21:39.008Z,100339.53
2023-05-14T13:24:05.880Z,100332.72
2023-05-14T13:26:32.340Z,100327.25
2023-05-14T13:28:58.745Z,100327.53
2023-05-14T13:31:25.233Z,100325.25
2023-05-14T13:33:52.979Z,100321.91
2023-05-14T13:36:19.435Z,100320.19
2023-05-14T13:38:45.866Z,100323.78
2023-05-14T13:41:12.322Z,100318.75
2023-05-14T13:43:38.769Z,100316.97
2023-05-14T13:46:05.689Z,100312.47
2023-05-14T13:48:32.344Z,100308.84
2023-05-14T13:51:00.087Z,100309.94
2023-05-14T13:53:29.307Z,100306.22
2023-05-14T13:55:55.711Z,100308.72
2023-05-14T13:58:22.829Z,100305.09
2023-05-14T14:00:49.348Z,100308.72
2023-05-14T14:03:15.759Z,100302.00
2023-05-14T14:05:42.246Z,100304.75
2023-05-14T14:08:22.716Z,100295.91
2023-05-14T14:10:50.334Z,100288.31
2023-05-14T14:13:16.736Z,100290.94
2023-05-14T14:15:43.285Z,100275.31
2023-05-14T14:18:09.703Z,100286.31
2023-05-14T14:20:36.256Z,100275.81
2023-05-14T14:23:02.726Z,100270.88
2023-05-14T14:25:30.633Z,100270.19
2023-05-14T14:27:57.160Z,100272.25
2023-05-14T14:30:23.753Z,100262.88
2023-05-14T14:32:50.766Z,100256.66
2023-05-14T14:35:18.762Z,100261.84
2023-05-14T14:37:46.241Z,100245.91
2023-05-14T14:40:12.802Z,100241.25
2023-05-14T14:42:40.548Z,100251.78
2023-05-14T14:45:07.824Z,100244.88
2023-05-14T14:47:34.364Z,100244.69
2023-05-14T14:50:01.001Z,100244.91
2023-05-14T14:52:27.978Z,100234.16
2023-05-14T14:54:54.966Z,100234.88
2023-05-14T14:57:21.426Z,100241.66
2023-05-14T14:59:49.267Z,100238.78
2023-05-14T15:02:15.974Z,100232.38
2023-05-14T15:04:42.505Z,100225.75
2023-05-14T15:07:09.200Z,100236.84
2023-05-14T15:09:35.708Z,100223.31
2023-05-14T15:12:02.209Z,100226.16
2023-05-14T15:14:28.853Z,100228.28
2023-05-14T15:16:56.634Z,100233.78
2023-05-14T15:19:23.210Z,100229.50
2023-05-14T15:21:49.755Z,100222.63
2023-05-14T15:24:16.236Z,100213.09
2023-05-14T15:26:42.790Z,100211.44
2023-05-14T15:29:09.263Z,100214.19
2023-05-14T15:31:35.834Z,100210.69
2023-05-14T15:34:03.628Z,100212.44
2023-05-14T15:36:32.840Z,100204.63
2023-05-14T15:38:59.678Z,100198.50
2023-05-14T15:41:26.148Z,100191.38
2023-05-14T15:43:52.592Z,100200.41
2023-05-14T15:46:19.039Z,100197.75
2023-05-14T15:48:45.543Z,100196.88
2023-05-14T15:51:13.804Z,100187.88
2023-05-14T15:53:40.324Z,100188.34
2023-05-14T15:56:07.432Z,100195.59
2023-05-14T15:58:33.869Z,100189.31
2023-05-14T16:01:00.299Z,100195.84
2023-05-14T16:03:26.797Z,100185.03
2023-05-14T16:05:53.362Z,100185.25
2023-05-14T16:08:21.129Z,100176.88
2023-05-14T16:10:47.538Z,100175.16
2023-05-14T16:13:14.051Z,100174.03
2023-05-14T16:15:40.607Z,100170.50
2023-05-14T16:18:07.109Z,100170.50
2023-05-14T16:20:36.205Z,100161.75
2023-05-14T16:23:05.286Z,100149.44
2023-05-14T16:25:33.225Z,100162.81
2023-05-14T16:28:00.307Z,100171.63
2023-05-14T16:30:26.994Z,100171.91
2023-05-14T16:32:53.515Z,100175.84
2023-05-14T16:35:19.960Z,100163.25
2023-05-14T16:37:46.451Z,100172.00
2023-05-14T16:40:13.527Z,100164.22
2023-05-14T16:42:41.531Z,100170.50
2023-05-14T16:45:09.124Z,100168.34
2023-05-14T16:47:35.674Z,100164.41
2023-05-14T16:50:04.076Z,100169.16
2023-05-14T16:52:30.519Z,100165.78
2023-05-14T16:54:56.941Z,100162.09
2023-05-14T16:57:23.310Z,100168.88
2023-05-14T16:59:52.846Z,100169.28
2023-05-14T17:02:19.446Z,100172.84
2023-05-14T17:04:45.991Z,100168.03
2023-05-14T17:07:12.504Z,100168.41
2023-05-14T17:09:38.883Z,100163.47
2023-05-14T17:12:06.238Z,100161.75
2023-05-14T17:14:32.698Z,100166.16
2023-05-14T17:17:00.468Z,100167.66
2023-05-14T17:19:26.846Z,100167.25
2023-05-14T17:21:53.261Z,100172.06
2023-05-14T17:24:19.795Z,100174.47
2023-05-14T17:26:46.269Z,100171.81
2023-05-14T17:29:12.702Z,100183.66
2023-05-14T17:31:39.202Z,100185.81
2023-05-14T17:34:07.021Z,100179.41
2023-05-14T17:36:33.540Z,100192.97
2023-05-14T17:39:00.161Z,100192.53
2023-05-14T17:41:26.572Z,100197.88
2023-05-14T17:43:53.064Z,100195.16
2023-05-14T17:46:19.521Z,100204.00
2023-05-14T17:48:46.838Z,100192.66
2023-05-14T17:51:17.792Z,100193.94
2023-05-14T17:53:44.230Z,100202.63
2023-05-14T17:56:10.806Z,100202.16
2023-05-14T17:58:40.007Z,100190.00
2023-05-14T18:01:09.431Z,100194.03
2023-05-14T18:03:35.924Z,100204.28
2023-05-14T18:06:05.572Z,100203.00
2023-05-14T18:08:33.358Z,100192.72
2023-05-14T18:10:59.858Z,100210.03
2023-05-14T18:13:26.340Z,100203.19
2023-05-14T18:15:53.005Z,100192.81
2023-05-14T18:18:19.682Z,100207.66
2023-05-14T18:20:46.064Z,100209.81
2023-05-14T18:23:12.448Z,100208.25
2023-05-14T18:25:40.190Z,100204.13
2023-05-14T18:28:06.699Z,100206.94
2023-05-14T18:30:33.140Z,100203.50
2023-05-14T18:32:59.694Z,100201.16
2023-05-14T18:35:26.428Z,100210.41
2023-05-14T18:37:53.585Z,100207.19
2023-05-14T18:40:20.192Z,100208.34
2023-05-14T18:42:47.924Z,100205.78
2023-05-14T18:45:14.442Z,100209.66
2023-05-14T18:47:41.168Z,100209.88
2023-05-14T18:50:08.518Z,100213.59
2023-05-14T18:52:35.048Z,100208.28
2023-05-14T18:55:01.467Z,100204.72
2023-05-14T18:57:28.037Z,100203.06
2023-05-14T18:59:55.747Z,100210.56
2023-05-14T19:02:22.244Z,100208.09
2023-05-14T19:04:52.796Z,100211.91
2023-05-14T19:07:19.798Z,100215.00
2023-05-14T19:09:46.289Z,100209.69
2023-05-14T19:12:13.142Z,100215.34
2023-05-14T19:14:39.629Z,100215.63
2023-05-14T19:17:07.463Z,100216.84
2023-05-14T19:19:34.029Z,100219.94
2023-05-14T19:22:00.464Z,100214.66
2023-05-14T19:24:26.919Z,100207.78
2023-05-14T19:26:53.334Z,100209.72
2023-05-14T19:29:19.793Z,100206.28
2023-05-14T19:31:46.245Z,100207.44
2023-05-14T19:34:14.071Z,100208.66
2023-05-14T19:36:40.550Z,100212.53
2023-05-14T19:39:07.154Z,100204.59
2023-05-14T19:41:33.645Z,100201.97
2023-05-14T19:44:00.109Z,100203.09
2023-05-14T19:46:26.622Z,100190.44
2023-05-14T19:48:53.025Z,100190.59
2023-05-14T19:51:20.821Z,100192.38
2023-05-14T19:53:47.202Z,100188.06
2023-05-14T19:56:13.653Z,100177.13
2023-05-14T19:58:40.144Z,100188.16
2023-05-14T20:01:06.634Z,100177.47
2023-05-14T20:03:32.998Z,100178.44
2023-05-14T20:05:59.465Z,100189.28
2023-05-14T20:08:27.281Z,100184.88
2023-05-14T20:10:53.706Z,100172.38
2023-05-14T20:13:20.552Z,100169.72
2023-05-14T20:15:47.460Z,100171.72
2023-05-14T20:18:17.024Z,100163.97
2023-05-14T20:20:43.391Z,100156.91
2023-05-14T20:23:09.884Z,100169.69
2023-05-14T20:25:37.622Z,100168.09
2023-05-14T20:28:04.208Z,100155.91
2023-05-14T20:30:30.817Z,100159.78
2023-05-14T20:32:57.414Z,100172.28
2023-05-14T20:35:24.203Z,100162.59
2023-05-14T20:37:50.836Z,100162.94
2023-05-14T20:40:17.558Z,100166.06
2023-05-14T20:42:45.339Z,100163.81
2023-05-14T20:45:11.793Z,100169.38
2023-05-14T20:47:38.348Z,100143.09
2023-05-14T20:50:05.788Z,100158.22
2023-05-14T20:52:32.209Z,100151.34
2023-05-14T20:55:01.415Z,100145.44
2023-05-14T20:57:28.412Z,100143.19
2023-05-14T20:59:56.164Z,100146.88
2023-05-14T21:02:22.973Z,100143.66
2023-05-14T21:04:49.589Z,100142.06
2023-05-14T21:07:16.118Z,100139.59
2023-05-14T21:09:42.544Z,100133.56
2023-05-14T21:12:09.694Z,100129.44
2023-05-14T21:14:36.110Z,100129.81
2023-05-14T21:17:03.966Z,100121.19
2023-05-14T21:19:30.403Z,100131.44
2023-05-14T21:21:56.788Z,100134.53
2023-05-14T21:24:23.187Z,100133.97
2023-05-14T21:26:50.639Z,100130.59
2023-05-14T21:29:18.085Z,100122.84
2023-05-14T21:31:44.506Z,100131.00
2023-05-14T21:34:12.300Z,100131.50
2023-05-14T21:36:38.773Z,100122.72
2023-05-14T21:39:05.258Z,100141.78
2023-05-14T21:41:32.041Z,100126.66
2023-05-14T21:43:58.470Z,100136.81
2023-05-14T21:46:25.089Z,100139.75
2023-05-14T21:48:51.677Z,100140.84
2023-05-14T21:51:19.443Z,100140.19
2023-05-14T21:53:45.857Z,100137.69
2023-05-14T21:56:12.245Z,100139.69
2023-05-14T21:58:38.701Z,100146.13
2023-05-14T22:01:05.359Z,100141.06
2023-05-14T22:03:31.781Z,100139.31
2023-05-14T22:05:58.236Z,100148.41
2023-05-14T22:08:26.035Z,100144.31
2023-05-14T22:10:52.503Z,100143.25
2023-05-14T22:13:19.112Z,100150.59
2023-05-14T22:15:45.621Z,100141.78
2023-05-14T22:18:12.114Z,100141.19
2023-05-14T22:20:38.617Z,100143.25
2023-05-14T22:23:05.046Z,100146.81
2023-05-14T22:25:32.859Z,100144.09
2023-05-14T22:27:59.301Z,100142.06
2023-05-14T22:30:25.751Z,100148.13
2023-05-14T22:32:52.805Z,100138.09
2023-05-14T22:35:19.208Z,100130.03
2023-05-14T22:37:45.631Z,100128.19
2023-05-14T22:40:13.035Z,100127.38
2023-05-14T22:42:40.766Z,100119.53
2023-05-14T22:45:08.267Z,100122.53
2023-05-14T22:47:34.724Z,100120.16
2023-05-14T22:50:01.112Z,100124.13
2023-05-14T22:52:27.535Z,100118.97
2023-05-14T22:54:53.936Z,100121.03
2023-05-14T22:57:20.361Z,100117.69
2023-05-14T22:59:48.076Z,100128.72
2023-05-14T23:02:14.519Z,100119.81
2023-05-14T23:04:41.108Z,100117.13
2023-05-14T23:07:07.614Z,100109.00
2023-05-14T23:09:34.058Z,100110.88
2023-05-14T23:12:00.497Z,100105.00
2023-05-14T23:14:27.101Z,100105.84
2023-05-14T23:16:54.834Z,100097.03
2023-05-14T23:19:23.461Z,100090.78
2023-05-14T23:21:49.928Z,100080.31
2023-05-14T23:24:16.333Z,100078.50
2023-05-14T23:26:42.912Z,100082.22
2023-05-14T23:29:09.384Z,100075.03
2023-05-14T23:31:35.886Z,100073.47
2023-05-14T23:34:03.681Z,100069.94
2023-05-14T23:36:30.190Z,100066.50
2023-05-14T23:38:56.948Z,100057.72
2023-05-14T23:41:23.397Z,100060.63
2023-05-14T23:43:49.834Z,100058.06
2023-05-14T23:46:16.421Z,100043.97
2023-05-14T23:48:43.190Z,100052.97
2023-05-14T23:51:11.441Z,100048.63
2023-05-14T23:53:37.886Z,100048.75
2023-05-14T23:56:04.386Z,100042.59
2023-05-14T23:58:30.926Z,100042.72
